createdAt,value
2018-06-05T00:00:33.916Z,32.50
2018-06-05T00:01:33.948Z,33.40
2018-06-05T00:02:33.842Z,34.00
2018-06-05T00:03:33.795Z,33.50
2018-06-05T00:04:33.743Z,34.00
2018-06-05T00:05:33.746Z,34.40
2018-06-05T00:06:33.669Z,34.60
2018-06-05T00:07:33.631Z,33.90
2018-06-05T00:08:33.641Z,33.60
2018-06-05T00:09:33.565Z,33.30
2018-06-05T00:10:33.614Z,33.80
2018-06-05T00:11:33.482Z,34.60
2018-06-05T00:12:33.508Z,35.20
2018-06-05T00:13:33.432Z,33.70
2018-06-05T00:14:33.466Z,33.60
2018-06-05T00:15:33.357Z,35.50
2018-06-05T00:16:33.306Z,34.70
2018-06-05T00:17:33.340Z,35.70
2018-06-05T00:18:33.211Z,34.30
2018-06-05T00:19:33.180Z,36.30
2018-06-05T00:20:33.169Z,35.70
2018-06-05T00:21:33.108Z,34.60
2018-06-05T00:22:33.069Z,34.40
2018-06-05T00:23:33.029Z,37.10
2018-06-05T00:24:43.294Z,35.70
2018-06-05T00:25:33.137Z,36.70
2018-06-05T00:26:32.927Z,35.80
2018-06-05T00:27:32.878Z,35.00
2018-06-05T00:28:32.900Z,34.30
2018-06-05T00:29:32.796Z,34.30
2018-06-05T00:30:32.792Z,34.90
2018-06-05T00:31:32.777Z,35.00
2018-06-05T00:32:32.695Z,36.10
2018-06-05T00:33:32.643Z,38.10
2018-06-05T00:34:32.735Z,37.50
2018-06-05T00:35:32.587Z,36.30
2018-06-05T00:36:32.539Z,34.80
2018-06-05T00:37:32.496Z,36.30
2018-06-05T00:38:32.459Z,38.10
2018-06-05T00:39:32.472Z,39.50
2018-06-05T00:40:32.381Z,39.70
2018-06-05T00:41:32.371Z,39.00
2018-06-05T00:42:32.308Z,40.50
2018-06-05T00:43:32.281Z,40.10
2018-06-05T00:44:32.344Z,40.00
2018-06-05T00:45:32.191Z,39.60
2018-06-05T00:46:32.163Z,40.80
2018-06-05T00:47:42.629Z,39.60
2018-06-05T00:48:32.082Z,39.50
2018-06-05T00:49:32.060Z,39.80
2018-06-05T00:50:32.017Z,41.30
2018-06-05T00:51:31.968Z,39.90
2018-06-05T00:52:32.065Z,40.70
2018-06-05T00:53:31.931Z,38.40
2018-06-05T00:54:31.909Z,39.40
2018-06-05T00:55:31.813Z,39.90
2018-06-05T00:56:31.790Z,41.20
2018-06-05T00:57:31.743Z,40.40
2018-06-05T00:58:31.717Z,40.40
2018-06-05T00:59:31.703Z,41.90
2018-06-05T01:00:31.623Z,39.20
2018-06-05T01:01:31.588Z,40.30
2018-06-05T01:02:31.683Z,39.30
2018-06-05T01:03:31.516Z,39.40
2018-06-05T01:04:31.503Z,40.20
2018-06-05T01:05:31.503Z,39.80
2018-06-05T01:06:31.422Z,40.70
2018-06-05T01:07:31.448Z,40.50
2018-06-05T01:08:31.387Z,40.70
2018-06-05T01:09:31.317Z,41.40
2018-06-05T01:10:31.258Z,40.10
2018-06-05T01:11:31.286Z,41.00
2018-06-05T01:12:31.163Z,41.60
2018-06-05T01:13:31.160Z,41.80
2018-06-05T01:14:31.100Z,41.70
2018-06-05T01:15:31.050Z,41.30
2018-06-05T01:16:31.045Z,40.20
2018-06-05T01:17:30.989Z,41.60
2018-06-05T01:18:30.938Z,42.20
2018-06-05T01:19:31.094Z,40.90
2018-06-05T01:20:30.930Z,40.90
2018-06-05T01:21:30.886Z,40.60
2018-06-05T01:22:30.807Z,41.40
2018-06-05T01:23:30.779Z,42.60
2018-06-05T01:24:30.943Z,42.70
2018-06-05T01:25:30.693Z,43.10
2018-06-05T01:26:30.651Z,43.20
2018-06-05T01:27:30.658Z,42.10
2018-06-05T01:28:30.612Z,42.30
2018-06-05T01:29:30.537Z,41.80
2018-06-05T01:30:30.502Z,41.80
2018-06-05T01:31:30.463Z,41.90
2018-06-05T01:32:30.437Z,42.60
2018-06-05T01:33:30.387Z,42.10
2018-06-05T01:34:30.372Z,43.90
2018-06-05T01:35:30.304Z,41.80
2018-06-05T01:36:30.276Z,43.10
2018-06-05T01:37:30.229Z,44.90
2018-06-05T01:38:30.199Z,42.60
2018-06-05T01:39:30.165Z,40.70
2018-06-05T01:40:30.162Z,41.70
2018-06-05T01:41:30.096Z,41.70
2018-06-05T01:42:30.057Z,41.90
2018-06-05T01:43:30.017Z,42.80
2018-06-05T01:44:30.048Z,41.40
2018-06-05T01:45:29.926Z,42.10
2018-06-05T01:46:29.923Z,41.80
2018-06-05T01:47:29.868Z,42.40
2018-06-05T01:48:29.847Z,42.50
2018-06-05T01:49:29.793Z,43.70
2018-06-05T01:50:29.752Z,42.20
2018-06-05T01:51:29.728Z,43.30
2018-06-05T01:52:29.732Z,44.20
2018-06-05T01:53:29.644Z,44.60
2018-06-05T01:54:29.676Z,44.80
2018-06-05T01:55:29.564Z,43.60
2018-06-05T01:56:29.607Z,43.10
2018-06-05T01:57:29.477Z,44.10
2018-06-05T01:58:38.339Z,46.80
2018-06-05T01:59:29.695Z,46.50
2018-06-05T02:00:29.406Z,45.20
2018-06-05T02:01:29.358Z,46.30
2018-06-05T02:02:29.299Z,45.10
2018-06-05T02:03:29.263Z,45.90
2018-06-05T02:04:29.217Z,46.00
2018-06-05T02:05:29.187Z,47.90
2018-06-05T02:06:29.181Z,45.90
2018-06-05T02:07:39.590Z,47.80
2018-06-05T02:08:29.094Z,46.50
2018-06-05T02:09:29.047Z,46.30
2018-06-05T02:10:29.017Z,51.30
2018-06-05T02:11:28.967Z,46.80
2018-06-05T02:12:29.169Z,48.80
2018-06-05T02:13:28.877Z,47.20
2018-06-05T02:14:28.987Z,49.90
2018-06-05T02:15:28.853Z,47.50
2018-06-05T02:16:28.817Z,48.10
2018-06-05T02:17:28.741Z,51.00
2018-06-05T02:18:28.726Z,48.40
2018-06-05T02:19:28.656Z,49.60
2018-06-05T02:20:28.642Z,51.20
2018-06-05T02:21:38.625Z,50.60
2018-06-05T02:22:28.546Z,48.60
2018-06-05T02:23:28.536Z,54.90
2018-06-05T02:24:28.523Z,53.50
2018-06-05T02:25:28.458Z,49.60
2018-06-05T02:26:39.701Z,53.80
2018-06-05T02:27:28.484Z,55.20
2018-06-05T02:28:28.352Z,54.50
2018-06-05T02:29:28.635Z,55.20
2018-06-05T02:30:28.444Z,54.90
2018-06-05T02:31:28.207Z,59.50
2018-06-05T02:32:28.176Z,58.30
2018-06-05T02:33:28.125Z,62.70
2018-06-05T02:34:28.249Z,59.40
2018-06-05T02:35:28.156Z,60.70
2018-06-05T02:36:28.042Z,58.70
2018-06-05T02:37:28.020Z,61.90
2018-06-05T02:38:27.953Z,61.80
2018-06-05T02:39:28.006Z,60.10
2018-06-05T02:40:27.904Z,60.80
2018-06-05T02:41:27.843Z,60.60
2018-06-05T02:42:27.811Z,65.20
2018-06-05T02:43:27.875Z,62.30
2018-06-05T02:44:27.729Z,63.60
2018-06-05T02:45:27.723Z,66.30
2018-06-05T02:46:36.689Z,65.40
2018-06-05T02:47:27.625Z,64.40
2018-06-05T02:48:27.723Z,65.70
2018-06-05T02:49:27.534Z,65.90
2018-06-05T02:50:27.489Z,64.50
2018-06-05T02:51:27.470Z,68.40
2018-06-05T02:52:27.560Z,62.90
2018-06-05T02:53:27.383Z,66.80
2018-06-05T02:54:27.338Z,66.70
2018-06-05T02:55:27.307Z,63.50
2018-06-05T02:56:27.299Z,64.60
2018-06-05T02:57:27.233Z,61.30
2018-06-05T02:58:27.191Z,63.60
2018-06-05T02:59:27.151Z,64.60
2018-06-05T03:00:27.127Z,66.30
2018-06-05T03:01:27.139Z,65.80
2018-06-05T03:02:27.058Z,65.60
2018-06-05T03:03:27.007Z,62.30
2018-06-05T03:04:26.968Z,66.40
2018-06-05T03:05:27.062Z,67.80
2018-06-05T03:06:37.961Z,68.00
2018-06-05T03:07:26.859Z,63.50
2018-06-05T03:08:26.845Z,69.40
2018-06-05T03:09:26.788Z,63.30
2018-06-05T03:10:26.852Z,64.90
2018-06-05T03:11:26.708Z,63.00
2018-06-05T03:12:26.706Z,68.30
2018-06-05T03:13:26.649Z,66.70
2018-06-05T03:14:26.611Z,66.40
2018-06-05T03:15:26.572Z,66.40
2018-06-05T03:16:26.523Z,63.90
2018-06-05T03:17:26.477Z,62.30
2018-06-05T03:18:26.469Z,59.40
2018-06-05T03:19:26.437Z,60.30
2018-06-05T03:20:26.510Z,63.00
2018-06-05T03:21:26.336Z,61.30
2018-06-05T03:22:26.292Z,62.00
2018-06-05T03:23:26.293Z,60.10
2018-06-05T03:24:26.220Z,61.30
2018-06-05T03:25:26.188Z,59.80
2018-06-05T03:26:26.224Z,60.90
2018-06-05T03:27:26.117Z,60.60
2018-06-05T03:28:26.064Z,59.60
2018-06-05T03:29:26.068Z,61.50
2018-06-05T03:30:25.997Z,60.00
2018-06-05T03:31:26.127Z,59.90
2018-06-05T03:32:36.363Z,59.30
2018-06-05T03:33:25.876Z,56.60
2018-06-05T03:34:25.844Z,58.80
2018-06-05T03:35:25.964Z,57.80
2018-06-05T03:36:25.769Z,59.20
2018-06-05T03:37:25.777Z,62.40
2018-06-05T03:38:25.697Z,58.50
2018-06-05T03:39:25.733Z,59.80
2018-06-05T03:40:25.652Z,62.40
2018-06-05T03:41:25.713Z,62.90
2018-06-05T03:42:25.602Z,64.10
2018-06-05T03:43:25.516Z,61.00
2018-06-05T03:44:25.466Z,60.20
2018-06-05T03:45:25.472Z,63.00
2018-06-05T03:46:33.003Z,63.40
2018-06-05T03:47:25.359Z,61.40
2018-06-05T03:48:25.322Z,61.20
2018-06-05T03:49:25.278Z,60.30
2018-06-05T03:50:25.239Z,59.90
2018-06-05T03:51:25.198Z,62.10
2018-06-05T03:52:25.208Z,62.60
2018-06-05T03:53:25.151Z,65.30
2018-06-05T03:54:25.204Z,63.80
2018-06-05T03:55:25.071Z,62.70
2018-06-05T03:56:36.297Z,61.30
2018-06-05T03:57:25.099Z,62.10
2018-06-05T03:58:24.934Z,66.80
2018-06-05T03:59:24.919Z,65.00
2018-06-05T04:00:24.883Z,63.30
2018-06-05T04:01:24.854Z,67.70
2018-06-05T04:02:25.016Z,62.40
2018-06-05T04:03:24.971Z,65.00
2018-06-05T04:04:24.799Z,67.70
2018-06-05T04:05:24.815Z,68.40
2018-06-05T04:06:24.649Z,66.40
2018-06-05T04:07:24.632Z,64.60
2018-06-05T04:08:24.571Z,67.40
2018-06-05T04:09:24.576Z,68.20
2018-06-05T04:10:24.515Z,68.30
2018-06-05T04:11:24.480Z,64.20
2018-06-05T04:12:24.417Z,66.40
2018-06-05T04:13:24.503Z,65.00
2018-06-05T04:14:24.363Z,61.60
2018-06-05T04:15:24.460Z,63.40
2018-06-05T04:16:24.326Z,60.80
2018-06-05T04:17:24.248Z,64.80
2018-06-05T04:18:24.228Z,61.80
2018-06-05T04:19:24.159Z,61.20
2018-06-05T04:20:24.243Z,64.70
2018-06-05T04:21:24.113Z,63.20
2018-06-05T04:22:24.054Z,63.10
2018-06-05T04:23:24.032Z,61.10
2018-06-05T04:24:23.984Z,61.70
2018-06-05T04:25:23.948Z,60.90
2018-06-05T04:26:23.916Z,61.30
2018-06-05T04:27:23.862Z,62.10
2018-06-05T04:28:23.838Z,62.50
2018-06-05T04:29:23.855Z,60.80
2018-06-05T04:30:23.756Z,64.20
2018-06-05T04:31:23.707Z,61.70
2018-06-05T04:32:23.720Z,59.40
2018-06-05T04:33:23.727Z,62.70
2018-06-05T04:34:23.670Z,60.30
2018-06-05T04:35:23.583Z,64.70
2018-06-05T04:36:23.618Z,60.10
2018-06-05T04:37:23.495Z,59.30
2018-06-05T04:38:23.478Z,67.80
2018-06-05T04:39:23.403Z,65.20
2018-06-05T04:40:23.388Z,61.70
2018-06-05T04:41:23.500Z,60.00
2018-06-05T04:42:23.414Z,62.40
2018-06-05T04:43:33.405Z,63.40
2018-06-05T04:44:23.232Z,65.90
2018-06-05T04:45:23.192Z,61.70
2018-06-05T04:46:23.242Z,59.70
2018-06-05T04:47:23.127Z,60.50
2018-06-05T04:48:23.095Z,61.80
2018-06-05T04:49:23.085Z,59.60
2018-06-05T04:50:23.011Z,57.60
2018-06-05T04:51:22.957Z,59.50
2018-06-05T04:52:22.944Z,57.00
2018-06-05T04:53:22.889Z,58.60
2018-06-05T04:54:22.878Z,55.80
2018-06-05T04:55:22.839Z,57.50
2018-06-05T04:56:22.796Z,54.00
2018-06-05T04:57:22.739Z,57.30
2018-06-05T04:58:22.705Z,59.20
2018-06-05T04:59:22.683Z,59.70
2018-06-05T05:00:22.647Z,56.80
2018-06-05T05:01:22.589Z,51.80
2018-06-05T05:02:22.553Z,53.70
2018-06-05T05:03:22.535Z,56.10
2018-06-05T05:04:22.516Z,53.50
2018-06-05T05:05:33.866Z,55.20
2018-06-05T05:06:32.941Z,52.50
2018-06-05T05:07:22.474Z,52.80
2018-06-05T05:08:22.352Z,54.70
2018-06-05T05:09:22.300Z,54.60
2018-06-05T05:10:22.280Z,52.90
2018-06-05T05:11:22.216Z,54.10
2018-06-05T05:12:22.183Z,55.50
2018-06-05T05:13:22.152Z,53.60
2018-06-05T05:14:22.119Z,53.50
2018-06-05T05:15:22.077Z,55.10
2018-06-05T05:16:22.064Z,54.80
2018-06-05T05:17:21.999Z,52.50
2018-06-05T05:18:21.971Z,52.60
2018-06-05T05:19:21.924Z,50.90
2018-06-05T05:20:21.988Z,51.30
2018-06-05T05:21:21.858Z,51.30
2018-06-05T05:22:21.840Z,50.80
2018-06-05T05:23:21.836Z,49.90
2018-06-05T05:24:32.901Z,51.90
2018-06-05T05:25:21.727Z,50.30
2018-06-05T05:26:21.731Z,46.80
2018-06-05T05:27:21.663Z,51.20
2018-06-05T05:28:21.601Z,50.70
2018-06-05T05:29:21.774Z,53.00
2018-06-05T05:30:32.047Z,48.60
2018-06-05T05:31:21.563Z,48.40
2018-06-05T05:32:21.560Z,45.80
2018-06-05T05:33:21.445Z,50.00
2018-06-05T05:34:21.378Z,50.90
2018-06-05T05:35:21.476Z,46.30
2018-06-05T05:36:21.358Z,47.60
2018-06-05T05:37:21.292Z,47.80
2018-06-05T05:38:21.262Z,43.90
2018-06-05T05:39:21.244Z,48.20
2018-06-05T05:40:21.165Z,42.90
2018-06-05T05:41:21.170Z,46.00
2018-06-05T05:42:21.089Z,45.20
2018-06-05T05:43:21.055Z,43.30
2018-06-05T05:44:21.067Z,41.80
2018-06-05T05:45:20.991Z,41.50
2018-06-05T05:46:20.949Z,40.70
2018-06-05T05:47:20.908Z,41.60
2018-06-05T05:48:20.858Z,41.20
2018-06-05T05:49:20.843Z,42.40
2018-06-05T05:50:20.817Z,41.20
2018-06-05T05:51:20.751Z,40.80
2018-06-05T05:52:20.846Z,38.50
2018-06-05T05:53:20.722Z,40.70
2018-06-05T05:54:20.675Z,40.30
2018-06-05T05:55:20.656Z,40.40
2018-06-05T05:56:20.604Z,39.30
2018-06-05T05:57:20.541Z,41.10
2018-06-05T05:58:20.502Z,43.20
2018-06-05T05:59:20.486Z,39.70
2018-06-05T06:00:20.433Z,40.40
2018-06-05T06:01:20.387Z,40.20
2018-06-05T06:02:20.446Z,41.50
2018-06-05T06:03:20.319Z,40.20
2018-06-05T06:04:29.978Z,39.60
2018-06-05T06:05:20.265Z,38.00
2018-06-05T06:06:20.209Z,37.60
2018-06-05T06:07:20.217Z,38.80
2018-06-05T06:08:20.135Z,38.10
2018-06-05T06:09:20.110Z,39.60
2018-06-05T06:10:20.107Z,38.70
2018-06-05T06:11:20.087Z,35.20
2018-06-05T06:12:19.990Z,37.30
2018-06-05T06:13:20.064Z,36.50
2018-06-05T06:14:19.921Z,38.40
2018-06-05T06:15:19.881Z,38.90
2018-06-05T06:16:19.905Z,38.60
2018-06-05T06:17:19.819Z,36.90
2018-06-05T06:18:19.774Z,39.80
2018-06-05T06:19:19.831Z,38.70
2018-06-05T06:20:19.702Z,40.30
2018-06-05T06:21:19.668Z,41.00
2018-06-05T06:22:19.656Z,39.10
2018-06-05T06:23:19.604Z,41.30
2018-06-05T06:24:19.570Z,40.10
2018-06-05T06:25:19.657Z,41.10
2018-06-05T06:26:19.497Z,41.00
2018-06-05T06:27:19.484Z,40.10
2018-06-05T06:28:19.417Z,41.50
2018-06-05T06:29:19.502Z,41.50
2018-06-05T06:30:19.481Z,41.70
2018-06-05T06:31:19.303Z,40.10
2018-06-05T06:32:19.423Z,43.30
2018-06-05T06:33:19.321Z,41.70
2018-06-05T06:34:19.317Z,41.20
2018-06-05T06:35:19.165Z,39.80
2018-06-05T06:36:19.131Z,40.60
2018-06-05T06:37:19.091Z,40.70
2018-06-05T06:38:19.095Z,40.30
2018-06-05T06:39:19.109Z,43.00
2018-06-05T06:40:31.176Z,41.70
2018-06-05T06:41:19.107Z,42.20
2018-06-05T06:42:18.926Z,41.30
2018-06-05T06:43:18.860Z,40.30
2018-06-05T06:44:18.971Z,41.90
2018-06-05T06:45:18.888Z,37.70
2018-06-05T06:46:18.779Z,38.80
2018-06-05T06:47:18.725Z,37.00
2018-06-05T06:48:18.687Z,35.70
2018-06-05T06:49:18.778Z,35.50
2018-06-05T06:50:18.618Z,35.80
2018-06-05T06:51:18.571Z,33.70
2018-06-05T06:52:18.560Z,32.40
2018-06-05T06:53:18.515Z,33.10
2018-06-05T06:54:18.470Z,32.90
2018-06-05T06:55:18.469Z,31.70
2018-06-05T06:56:18.393Z,32.10
2018-06-05T06:57:18.515Z,31.40
2018-06-05T06:58:18.321Z,30.90
2018-06-05T06:59:18.297Z,31.10
2018-06-05T07:00:18.256Z,31.50
2018-06-05T07:01:18.368Z,32.90
2018-06-05T07:02:18.202Z,32.00
2018-06-05T07:03:18.131Z,31.70
2018-06-05T07:04:18.344Z,32.90
2018-06-05T07:05:18.226Z,31.90
2018-06-05T07:06:18.047Z,31.80
2018-06-05T07:07:18.046Z,32.20
2018-06-05T07:08:18.007Z,33.40
2018-06-05T07:09:17.927Z,32.60
2018-06-05T07:10:17.908Z,32.90
2018-06-05T07:11:17.870Z,32.70
2018-06-05T07:12:18.015Z,33.40
2018-06-05T07:13:17.804Z,33.80
2018-06-05T07:14:17.867Z,27.50
2018-06-05T07:15:17.720Z,31.20
2018-06-05T07:16:17.718Z,32.00
2018-06-05T07:17:17.664Z,31.20
2018-06-05T07:18:17.653Z,31.30
2018-06-05T07:19:17.565Z,32.30
2018-06-05T07:20:17.520Z,32.20
2018-06-05T07:21:17.513Z,30.70
2018-06-05T07:22:17.508Z,32.00
2018-06-05T07:23:17.431Z,35.90
2018-06-05T07:24:17.399Z,33.20
2018-06-05T07:25:17.349Z,38.10
2018-06-05T07:26:17.318Z,39.20
2018-06-05T07:27:17.313Z,43.50
2018-06-05T07:28:17.251Z,42.10
2018-06-05T07:29:17.215Z,49.30
2018-06-05T07:30:17.253Z,46.50
2018-06-05T07:31:17.148Z,47.10
2018-06-05T07:32:17.105Z,47.50
2018-06-05T07:33:17.106Z,47.90
2018-06-05T07:34:17.030Z,45.40
2018-06-05T07:35:16.988Z,47.60
2018-06-05T07:36:16.990Z,49.70
2018-06-05T07:37:16.919Z,48.00
2018-06-05T07:38:16.916Z,48.80
2018-06-05T07:39:16.911Z,48.10
2018-06-05T07:40:16.799Z,46.90
2018-06-05T07:41:16.785Z,46.20
2018-06-05T07:42:16.748Z,48.60
2018-06-05T07:43:27.217Z,47.80
2018-06-05T07:44:16.724Z,48.10
2018-06-05T07:45:16.663Z,46.70
2018-06-05T07:46:16.624Z,46.40
2018-06-05T07:47:16.557Z,46.60
2018-06-05T07:48:16.522Z,46.20
2018-06-05T07:49:16.528Z,46.10
2018-06-05T07:50:16.464Z,46.20
2018-06-05T07:51:16.415Z,45.70
2018-06-05T07:52:16.375Z,45.00
2018-06-05T07:53:16.339Z,47.10
2018-06-05T07:54:16.324Z,44.60
2018-06-05T07:55:16.326Z,46.80
2018-06-05T07:56:16.246Z,44.00
2018-06-05T07:57:16.208Z,45.80
2018-06-05T07:58:16.181Z,46.20
2018-06-05T07:59:16.143Z,44.00
2018-06-05T08:00:16.093Z,45.30
2018-06-05T08:01:16.094Z,47.00
2018-06-05T08:02:26.308Z,47.50
2018-06-05T08:03:27.242Z,45.30
2018-06-05T08:04:15.973Z,47.40
2018-06-05T08:05:15.930Z,45.40
2018-06-05T08:06:15.872Z,46.90
2018-06-05T08:07:15.866Z,49.50
2018-06-05T08:08:15.809Z,45.20
2018-06-05T08:09:15.775Z,48.20
2018-06-05T08:10:15.725Z,47.80
2018-06-05T08:11:15.690Z,46.80
2018-06-05T08:12:15.689Z,46.90
2018-06-05T08:13:15.639Z,45.40
2018-06-05T08:14:15.590Z,47.10
2018-06-05T08:15:15.576Z,44.70
2018-06-05T08:16:15.517Z,46.10
2018-06-05T08:17:15.515Z,46.10
2018-06-05T08:18:15.453Z,45.60
2018-06-05T08:19:15.408Z,46.10
2018-06-05T08:20:15.371Z,46.40
2018-06-05T08:21:15.347Z,45.60
2018-06-05T08:22:15.335Z,45.60
2018-06-05T08:23:15.271Z,45.80
2018-06-05T08:24:15.228Z,45.30
2018-06-05T08:25:15.207Z,44.20
2018-06-05T08:26:15.165Z,45.60
2018-06-05T08:27:15.145Z,42.80
2018-06-05T08:28:15.089Z,42.90
2018-06-05T08:29:15.052Z,45.40
2018-06-05T08:30:15.009Z,43.80
2018-06-05T08:31:14.978Z,43.70
2018-06-05T08:32:15.033Z,43.10
2018-06-05T08:33:14.908Z,42.00
2018-06-05T08:34:14.885Z,42.70
2018-06-05T08:35:14.854Z,42.20
2018-06-05T08:36:14.875Z,42.50
2018-06-05T08:37:14.799Z,42.40
2018-06-05T08:38:25.179Z,41.00
2018-06-05T08:39:14.740Z,41.50
2018-06-05T08:40:14.659Z,42.50
2018-06-05T08:41:14.624Z,41.70
2018-06-05T08:42:14.615Z,42.50
2018-06-05T08:43:14.581Z,41.40
2018-06-05T08:44:14.523Z,40.10
2018-06-05T08:45:14.596Z,41.50
2018-06-05T08:46:14.478Z,41.20
2018-06-05T08:47:15.902Z,40.90
2018-06-05T08:48:14.468Z,41.90
2018-06-05T08:49:14.366Z,40.90
2018-06-05T08:50:14.353Z,41.90
2018-06-05T08:51:14.407Z,40.20
2018-06-05T08:52:14.297Z,40.40
2018-06-05T08:53:14.239Z,39.00
2018-06-05T08:54:14.215Z,38.10
2018-06-05T08:55:14.193Z,38.50
2018-06-05T08:56:14.100Z,35.80
2018-06-05T08:57:14.067Z,39.30
2018-06-05T08:58:14.064Z,41.50
2018-06-05T08:59:14.106Z,39.60
2018-06-05T09:00:13.980Z,39.10
2018-06-05T09:01:24.349Z,41.10
2018-06-05T09:02:24.366Z,42.00
2018-06-05T09:03:14.848Z,39.70
2018-06-05T09:04:14.032Z,40.60
2018-06-05T09:05:15.549Z,40.40
2018-06-05T09:06:13.759Z,38.00
2018-06-05T09:07:13.711Z,36.30
2018-06-05T09:08:13.691Z,36.60
2018-06-05T09:09:13.746Z,38.10
2018-06-05T09:10:13.617Z,35.90
2018-06-05T09:11:13.589Z,36.40
2018-06-05T09:12:13.539Z,38.10
2018-06-05T09:13:13.530Z,36.50
2018-06-05T09:14:13.506Z,37.10
2018-06-05T09:15:13.452Z,38.40
2018-06-05T09:16:13.402Z,37.10
2018-06-05T09:17:13.366Z,40.40
2018-06-05T09:18:13.334Z,39.80
2018-06-05T09:19:13.326Z,38.70
2018-06-05T09:20:13.270Z,40.50
2018-06-05T09:21:13.249Z,40.80
2018-06-05T09:22:13.205Z,41.70
2018-06-05T09:23:13.169Z,39.70
2018-06-05T09:24:13.186Z,40.00
2018-06-05T09:25:13.110Z,39.90
2018-06-05T09:26:13.054Z,38.50
2018-06-05T09:27:13.027Z,39.20
2018-06-05T09:28:13.013Z,40.90
2018-06-05T09:29:12.960Z,39.20
2018-06-05T09:30:12.958Z,39.40
2018-06-05T09:31:12.872Z,41.90
2018-06-05T09:32:12.858Z,42.50
2018-06-05T09:33:12.810Z,45.20
2018-06-05T09:34:12.786Z,42.00
2018-06-05T09:35:12.752Z,40.80
2018-06-05T09:36:12.736Z,40.80
2018-06-05T09:37:12.671Z,41.20
2018-06-05T09:38:12.649Z,41.00
2018-06-05T09:39:12.590Z,37.10
2018-06-05T09:40:22.594Z,40.90
2018-06-05T09:41:24.083Z,40.30
2018-06-05T09:42:14.122Z,41.30
2018-06-05T09:43:13.066Z,41.10
2018-06-05T09:44:12.463Z,40.20
2018-06-05T09:45:13.999Z,40.70
2018-06-05T09:46:12.398Z,40.70
2018-06-05T09:47:12.336Z,40.70
2018-06-05T09:48:26.205Z,41.20
2018-06-05T09:49:12.591Z,37.80
2018-06-05T09:50:14.862Z,36.60
2018-06-05T09:51:14.825Z,36.40
2018-06-05T09:52:13.624Z,36.30
2018-06-05T09:53:12.176Z,39.40
2018-06-05T09:54:12.167Z,36.80
2018-06-05T09:55:12.175Z,37.90
2018-06-05T09:56:14.318Z,37.10
2018-06-05T09:57:12.033Z,36.00
2018-06-05T09:58:13.318Z,36.70
2018-06-05T09:59:11.989Z,39.40
2018-06-05T10:00:11.883Z,37.10
2018-06-05T10:01:22.744Z,38.10
2018-06-05T10:02:12.573Z,38.30
2018-06-05T10:03:11.794Z,38.00
2018-06-05T10:04:13.781Z,38.30
2018-06-05T10:05:11.710Z,41.00
2018-06-05T10:06:11.735Z,41.30
2018-06-05T10:07:11.607Z,40.10
2018-06-05T10:08:11.618Z,39.20
2018-06-05T10:09:11.625Z,40.30
2018-06-05T10:10:11.519Z,42.90
2018-06-05T10:11:11.482Z,40.80
2018-06-05T10:12:11.434Z,43.70
2018-06-05T10:13:23.409Z,43.10
2018-06-05T10:14:12.043Z,43.40
2018-06-05T10:15:11.409Z,44.10
2018-06-05T10:16:11.291Z,44.30
2018-06-05T10:17:11.254Z,44.00
2018-06-05T10:18:11.230Z,44.40
2018-06-05T10:19:11.221Z,46.50
2018-06-05T10:20:11.166Z,44.90
2018-06-05T10:21:22.405Z,46.00
2018-06-05T10:22:22.930Z,45.60
2018-06-05T10:23:11.040Z,45.70
2018-06-05T10:24:11.263Z,47.40
2018-06-05T10:25:11.688Z,48.10
2018-06-05T10:26:11.158Z,49.00
2018-06-05T10:27:10.911Z,47.20
2018-06-05T10:28:10.881Z,46.70
2018-06-05T10:29:10.841Z,48.50
2018-06-05T10:30:10.840Z,49.60
2018-06-05T10:31:10.785Z,49.00
2018-06-05T10:32:10.736Z,50.10
2018-06-05T10:33:10.862Z,48.60
2018-06-05T10:34:10.688Z,49.40
2018-06-05T10:35:10.658Z,48.80
2018-06-05T10:36:10.620Z,49.90
2018-06-05T10:37:10.562Z,49.20
2018-06-05T10:38:10.934Z,50.70
2018-06-05T10:39:10.486Z,50.50
2018-06-05T10:40:10.493Z,49.70
2018-06-05T10:41:10.448Z,49.40
2018-06-05T10:42:21.389Z,47.10
2018-06-05T10:43:10.439Z,46.60
2018-06-05T10:44:10.373Z,44.90
2018-06-05T10:45:10.274Z,45.30
2018-06-05T10:46:10.272Z,44.40
2018-06-05T10:47:10.289Z,45.30
2018-06-05T10:48:10.316Z,46.20
2018-06-05T10:49:10.153Z,46.20
2018-06-05T10:50:10.095Z,45.30
2018-06-05T10:51:10.091Z,45.70
2018-06-05T10:52:10.064Z,45.70
2018-06-05T10:53:10.008Z,47.30
2018-06-05T10:54:09.971Z,46.70
2018-06-05T10:55:09.941Z,46.40
2018-06-05T10:56:09.919Z,47.00
2018-06-05T10:57:10.009Z,47.20
2018-06-05T10:58:09.898Z,47.50
2018-06-05T10:59:09.792Z,48.50
2018-06-05T11:00:09.750Z,48.50
2018-06-05T11:01:19.707Z,49.50
2018-06-05T11:02:21.229Z,50.70
2018-06-05T11:03:10.105Z,50.80
2018-06-05T11:04:09.628Z,49.90
2018-06-05T11:05:09.625Z,49.30
2018-06-05T11:06:11.862Z,48.30
2018-06-05T11:07:09.665Z,49.50
2018-06-05T11:08:09.534Z,48.60
2018-06-05T11:09:09.442Z,46.10
2018-06-05T11:10:09.412Z,47.30
2018-06-05T11:11:09.417Z,45.20
2018-06-05T11:12:09.469Z,45.30
2018-06-05T11:13:09.441Z,42.60
2018-06-05T11:14:09.280Z,44.00
2018-06-05T11:15:09.251Z,42.70
2018-06-05T11:16:09.230Z,41.60
2018-06-05T11:17:09.160Z,43.90
2018-06-05T11:18:09.141Z,45.40
2018-06-05T11:19:09.097Z,45.40
2018-06-05T11:20:09.185Z,44.90
2018-06-05T11:21:09.035Z,46.30
2018-06-05T11:22:09.038Z,46.00
2018-06-05T11:23:18.080Z,45.70
2018-06-05T11:24:09.076Z,47.10
2018-06-05T11:25:09.130Z,47.40
2018-06-05T11:26:19.293Z,48.30
2018-06-05T11:27:08.851Z,46.00
2018-06-05T11:28:08.827Z,45.70
2018-06-05T11:29:10.136Z,44.50
2018-06-05T11:30:08.744Z,44.40
2018-06-05T11:31:08.678Z,40.80
2018-06-05T11:32:08.696Z,41.00
2018-06-05T11:33:08.607Z,41.80
2018-06-05T11:34:08.580Z,41.90
2018-06-05T11:35:08.555Z,42.30
2018-06-05T11:36:08.530Z,41.60
2018-06-05T11:37:08.482Z,42.30
2018-06-05T11:38:08.734Z,39.90
2018-06-05T11:39:08.498Z,40.70
2018-06-05T11:40:08.509Z,39.50
2018-06-05T11:41:08.354Z,39.80
2018-06-05T11:42:08.335Z,40.60
2018-06-05T11:43:20.069Z,40.70
2018-06-05T11:44:08.419Z,40.80
2018-06-05T11:45:08.220Z,41.10
2018-06-05T11:46:08.785Z,42.00
2018-06-05T11:47:08.166Z,40.90
2018-06-05T11:48:08.103Z,39.70
2018-06-05T11:49:08.091Z,39.20
2018-06-05T11:50:08.165Z,40.60
2018-06-05T11:51:08.038Z,42.10
2018-06-05T11:52:07.964Z,38.40
2018-06-05T11:53:07.972Z,38.30
2018-06-05T11:54:07.920Z,39.30
2018-06-05T11:55:07.878Z,38.00
2018-06-05T11:56:07.844Z,37.80
2018-06-05T11:57:07.804Z,38.40
2018-06-05T11:58:08.088Z,38.80
2018-06-05T11:59:07.748Z,38.40
2018-06-05T12:00:07.722Z,36.80
2018-06-05T12:01:07.668Z,38.70
2018-06-05T12:02:19.463Z,37.30
2018-06-05T12:03:18.664Z,37.20
2018-06-05T12:04:07.645Z,36.50
2018-06-05T12:05:07.537Z,35.40
2018-06-05T12:06:07.501Z,35.70
2018-06-05T12:07:07.467Z,37.60
2018-06-05T12:08:07.494Z,35.10
2018-06-05T12:09:07.406Z,35.50
2018-06-05T12:10:07.373Z,36.90
2018-06-05T12:11:07.603Z,38.50
2018-06-05T12:12:07.317Z,38.20
2018-06-05T12:13:07.276Z,36.90
2018-06-05T12:14:17.367Z,38.00
2018-06-05T12:15:07.696Z,38.80
2018-06-05T12:16:07.194Z,39.10
2018-06-05T12:17:08.673Z,36.60
2018-06-05T12:18:07.119Z,36.80
2018-06-05T12:19:07.106Z,38.90
2018-06-05T12:20:07.063Z,36.60
2018-06-05T12:21:07.009Z,37.00
2018-06-05T12:22:06.975Z,36.90
2018-06-05T12:23:17.431Z,40.10
2018-06-05T12:24:06.939Z,37.60
2018-06-05T12:25:07.239Z,36.30
2018-06-05T12:26:07.296Z,37.00
2018-06-05T12:27:07.228Z,36.70
2018-06-05T12:28:06.766Z,34.90
2018-06-05T12:29:06.785Z,36.70
2018-06-05T12:30:06.766Z,35.50
2018-06-05T12:31:06.684Z,37.40
2018-06-05T12:32:06.638Z,38.40
2018-06-05T12:33:06.743Z,37.90
2018-06-05T12:34:06.607Z,39.70
2018-06-05T12:35:06.595Z,38.80
2018-06-05T12:36:06.514Z,38.60
2018-06-05T12:37:06.544Z,38.60
2018-06-05T12:38:14.782Z,40.10
2018-06-05T12:39:06.442Z,39.70
2018-06-05T12:40:06.814Z,40.70
2018-06-05T12:41:06.373Z,40.80
2018-06-05T12:42:06.311Z,39.10
2018-06-05T12:43:17.702Z,39.70
2018-06-05T12:44:19.000Z,40.00
2018-06-05T12:45:06.232Z,38.80
2018-06-05T12:46:06.422Z,39.30
2018-06-05T12:47:06.755Z,37.40
2018-06-05T12:48:06.130Z,38.60
2018-06-05T12:49:06.095Z,37.10
2018-06-05T12:50:06.044Z,37.90
2018-06-05T12:51:06.031Z,36.10
2018-06-05T12:52:05.977Z,41.80